createdAt,value
2022-08-11T00:00:06.047Z,22.24
2022-08-11T00:02:14.995Z,22.51
2022-08-11T00:04:20.720Z,22.35
2022-08-11T00:06:26.815Z,22.38
2022-08-11T00:08:32.944Z,21.97
2022-08-11T00:10:36.118Z,22.19
2022-08-11T00:12:39.271Z,22.19
2022-08-11T00:14:43.780Z,21.78
2022-08-11T00:16:56.784Z,21.86
2022-08-11T00:19:01.986Z,21.67
2022-08-11T00:21:04.956Z,22.00
2022-08-11T00:23:10.588Z,21.98
2022-08-11T00:25:15.335Z,21.97
2022-08-11T00:27:18.340Z,22.13
2022-08-11T00:29:23.231Z,22.21
2022-08-11T00:31:31.201Z,21.88
2022-08-11T00:33:44.147Z,21.66
2022-08-11T00:35:57.192Z,21.86
2022-08-11T00:38:01.530Z,21.83
2022-08-11T00:40:10.144Z,21.52
2022-08-11T00:42:25.673Z,21.36
2022-08-11T00:44:43.131Z,21.32
2022-08-11T00:46:58.848Z,21.37
2022-08-11T00:49:18.162Z,21.78
2022-08-11T00:51:57.583Z,21.38
2022-08-11T00:54:06.789Z,21.42
2022-08-11T00:56:44.272Z,21.65
2022-08-11T00:59:34.290Z,21.81
2022-08-11T01:01:57.946Z,21.25
2022-08-11T01:04:18.270Z,21.96
2022-08-11T01:06:45.350Z,21.70
2022-08-11T01:09:18.849Z,21.88
2022-08-11T01:11:55.884Z,20.77
2022-08-11T01:14:58.362Z,21.57
2022-08-11T01:17:55.356Z,21.40
2022-08-11T01:20:48.022Z,21.44
2022-08-11T01:23:15.760Z,21.47
2022-08-11T01:25:57.279Z,21.17
2022-08-11T01:28:24.861Z,21.37
2022-08-11T01:31:04.564Z,20.81
2022-08-11T01:34:09.703Z,21.44
2022-08-11T01:36:56.649Z,21.51
2022-08-11T01:39:26.067Z,20.99
2022-08-11T01:42:13.515Z,21.34
2022-08-11T01:44:46.719Z,20.96
2022-08-11T01:46:55.512Z,21.65
2022-08-11T01:50:05.817Z,21.35
2022-08-11T01:51:47.228Z,21.55
2022-08-11T01:53:58.329Z,21.65
2022-08-11T01:56:24.014Z,21.91
2022-08-11T01:58:43.217Z,21.96
2022-08-11T02:00:56.199Z,21.94
2022-08-11T02:03:13.779Z,21.72
2022-08-11T02:05:27.499Z,21.63
2022-08-11T02:07:37.062Z,21.89
2022-08-11T02:09:54.531Z,21.99
2022-08-11T02:12:05.904Z,21.90
2022-08-11T02:14:25.056Z,21.77
2022-08-11T02:16:44.054Z,21.58
2022-08-11T02:19:11.151Z,21.63
2022-08-11T02:21:46.315Z,21.70
2022-08-11T02:24:05.152Z,21.83
2022-08-11T02:26:12.485Z,21.71
2022-08-11T02:28:28.899Z,21.67
2022-08-11T02:30:36.570Z,21.76
2022-08-11T02:33:04.514Z,21.93
2022-08-11T02:35:16.288Z,21.95
2022-08-11T02:37:25.833Z,20.79
2022-08-11T02:39:40.367Z,21.32
2022-08-11T02:42:32.799Z,21.35
2022-08-11T02:44:44.973Z,21.57
2022-08-11T02:46:56.884Z,21.72
2022-08-11T02:49:23.995Z,21.48
2022-08-11T02:51:40.814Z,20.19
2022-08-11T02:53:56.339Z,19.12
2022-08-11T02:56:09.945Z,20.14
2022-08-11T02:58:17.672Z,20.66
2022-08-11T03:00:28.125Z,21.01
2022-08-11T03:02:53.015Z,21.26
2022-08-11T03:05:14.353Z,21.27
2022-08-11T03:07:28.537Z,21.17
2022-08-11T03:09:47.864Z,21.40
2022-08-11T03:12:20.603Z,21.26
2022-08-11T03:14:47.961Z,20.99
2022-08-11T03:16:57.954Z,21.25
2022-08-11T03:19:13.686Z,21.11
2022-08-11T03:21:22.064Z,21.26
2022-08-11T03:23:31.134Z,21.08
2022-08-11T03:25:46.368Z,20.65
2022-08-11T03:27:55.085Z,20.79
2022-08-11T03:30:07.034Z,20.99
2022-08-11T03:32:20.494Z,21.03
2022-08-11T03:34:26.595Z,21.05
2022-08-11T03:37:16.084Z,20.54
2022-08-11T03:39:24.538Z,20.53
2022-08-11T03:42:01.949Z,20.36
2022-08-11T03:44:21.364Z,20.76
2022-08-11T03:46:39.646Z,20.83
2022-08-11T03:48:55.529Z,20.97
2022-08-11T03:51:14.644Z,21.09
2022-08-11T03:53:28.117Z,21.25
2022-08-11T03:55:55.212Z,21.28
2022-08-11T03:58:41.860Z,21.10
2022-08-11T04:01:32.450Z,21.08
2022-08-11T04:04:09.962Z,20.86
2022-08-11T04:06:49.014Z,20.64
2022-08-11T04:09:25.167Z,20.60
2022-08-11T04:12:14.828Z,20.85
2022-08-11T04:15:07.994Z,20.69
2022-08-11T04:17:45.522Z,20.93
2022-08-11T04:20:19.872Z,20.57
2022-08-11T04:22:51.185Z,20.01
2022-08-11T04:25:24.469Z,20.28
2022-08-11T04:27:55.214Z,20.55
2022-08-11T04:30:09.106Z,20.58
2022-08-11T04:32:35.782Z,20.62
2022-08-11T04:34:50.586Z,20.36
2022-08-11T04:37:34.568Z,20.10
2022-08-11T04:39:59.616Z,20.17
2022-08-11T04:42:52.804Z,20.57
2022-08-11T04:45:25.289Z,20.62
2022-08-11T04:48:08.318Z,20.54
2022-08-11T04:50:45.502Z,20.43
2022-08-11T04:53:52.403Z,20.55
2022-08-11T04:56:24.586Z,20.37
2022-08-11T04:59:08.359Z,20.33
2022-08-11T05:01:44.180Z,20.63
2022-08-11T05:04:43.455Z,19.72
2022-08-11T05:07:10.512Z,19.34
2022-08-11T05:09:27.135Z,19.00
2022-08-11T05:11:51.473Z,18.78
2022-08-11T05:14:54.502Z,18.61
2022-08-11T05:17:19.034Z,16.65
2022-08-11T05:19:52.312Z,18.16
2022-08-11T05:22:16.081Z,18.11
2022-08-11T05:24:41.054Z,18.06
2022-08-11T05:27:09.951Z,18.06
2022-08-11T05:29:56.455Z,18.05
2022-08-11T05:32:20.227Z,17.71
2022-08-11T05:34:46.029Z,17.97
2022-08-11T05:36:56.423Z,17.95
2022-08-11T05:39:36.486Z,18.03
2022-08-11T05:41:59.091Z,15.57
2022-08-11T05:44:23.042Z,18.03
2022-08-11T05:46:45.700Z,18.12
2022-08-11T05:49:07.464Z,18.37
2022-08-11T05:51:30.447Z,18.46
2022-08-11T05:53:51.629Z,18.52
2022-08-11T05:56:12.594Z,18.62
2022-08-11T05:58:15.716Z,18.78
2022-08-11T06:00:19.941Z,18.74
2022-08-11T06:02:22.999Z,18.67
2022-08-11T06:04:27.671Z,18.74
2022-08-11T06:06:32.477Z,18.84
2022-08-11T06:08:36.378Z,18.23
2022-08-11T06:10:42.305Z,19.15
2022-08-11T06:12:46.166Z,19.18
2022-08-11T06:14:52.201Z,19.33
2022-08-11T06:17:00.639Z,19.36
2022-08-11T06:19:05.283Z,18.75
2022-08-11T06:21:12.428Z,19.59
2022-08-11T06:23:19.529Z,19.59
2022-08-11T06:25:24.342Z,19.65
2022-08-11T06:27:28.248Z,19.84
2022-08-11T06:29:38.275Z,19.98
2022-08-11T06:31:57.814Z,19.97
2022-08-11T06:34:11.734Z,20.19
2022-08-11T06:36:35.806Z,20.22
2022-08-11T06:38:55.041Z,19.78
2022-08-11T06:41:18.864Z,20.29
2022-08-11T06:43:25.844Z,20.47
2022-08-11T06:45:32.213Z,20.52
2022-08-11T06:47:36.194Z,20.55
2022-08-11T06:50:04.040Z,20.20
2022-08-11T06:52:34.759Z,20.75
2022-08-11T06:54:38.947Z,20.66
2022-08-11T06:57:28.759Z,20.65
2022-08-11T06:59:50.643Z,20.91
2022-08-11T07:02:02.344Z,21.15
2022-08-11T07:04:08.256Z,20.31
2022-08-11T07:06:35.984Z,21.17
2022-08-11T07:09:37.903Z,21.52
2022-08-11T07:12:47.967Z,21.73
2022-08-11T07:15:11.192Z,21.67
2022-08-11T07:17:17.987Z,21.82
2022-08-11T07:19:44.402Z,21.85
2022-08-11T07:22:06.202Z,21.38
2022-08-11T07:24:59.737Z,22.13
2022-08-11T07:27:14.760Z,22.11
2022-08-11T07:29:21.376Z,22.27
2022-08-11T07:31:32.725Z,22.42
2022-08-11T07:34:08.455Z,22.47
2022-08-11T07:36:09.164Z,21.68
2022-08-11T07:38:25.322Z,22.44
2022-08-11T07:40:29.127Z,22.57
2022-08-11T07:42:35.854Z,22.64
2022-08-11T07:44:56.210Z,22.62
2022-08-11T07:47:17.545Z,22.68
2022-08-11T07:49:38.227Z,22.82
2022-08-11T07:52:00.307Z,22.88
2022-08-11T07:54:16.695Z,22.96
2022-08-11T07:56:37.097Z,22.76
2022-08-11T07:59:07.489Z,23.07
2022-08-11T08:01:31.256Z,23.21
2022-08-11T08:03:54.439Z,23.04
2022-08-11T08:06:35.798Z,23.40
2022-08-11T08:08:59.837Z,23.53
2022-08-11T08:11:27.315Z,23.59
2022-08-11T08:13:50.787Z,23.68
2022-08-11T08:16:12.370Z,23.59
2022-08-11T08:18:26.162Z,23.54
2022-08-11T08:20:32.629Z,23.88
2022-08-11T08:22:38.388Z,23.92
2022-08-11T08:24:42.752Z,24.10
2022-08-11T08:27:01.228Z,24.14
2022-08-11T08:29:25.845Z,24.21
2022-08-11T08:31:28.708Z,24.48
2022-08-11T08:33:33.775Z,24.57
2022-08-11T08:35:38.100Z,24.67
2022-08-11T08:37:58.952Z,24.87
2022-08-11T08:40:01.807Z,24.97
2022-08-11T08:42:11.146Z,25.11
2022-08-11T08:44:37.115Z,25.17
2022-08-11T08:46:43.777Z,25.46
2022-08-11T08:48:49.110Z,25.61
2022-08-11T08:51:15.321Z,25.72
2022-08-11T08:53:22.864Z,25.66
2022-08-11T08:55:28.572Z,25.72
2022-08-11T08:57:38.946Z,25.67
2022-08-11T08:59:49.106Z,25.85
2022-08-11T09:01:58.883Z,25.94
2022-08-11T09:04:11.242Z,26.06
2022-08-11T09:06:16.705Z,26.16
2022-08-11T09:08:21.687Z,26.04
2022-08-11T09:10:25.898Z,26.02
2022-08-11T09:12:38.546Z,25.67
2022-08-11T09:15:04.501Z,26.30
2022-08-11T09:17:07.421Z,26.15
2022-08-11T09:19:14.235Z,26.33
2022-08-11T09:21:36.867Z,26.30
2022-08-11T09:24:08.735Z,26.28
2022-08-11T09:26:31.372Z,26.49
2022-08-11T09:28:36.778Z,26.70
2022-08-11T09:30:42.756Z,26.67
2022-08-11T09:32:45.937Z,26.66
2022-08-11T09:34:52.518Z,26.82
2022-08-11T09:37:28.337Z,26.95
2022-08-11T09:39:57.584Z,27.08
2022-08-11T09:42:04.188Z,27.08
2022-08-11T09:44:27.248Z,27.21
2022-08-11T09:46:31.378Z,27.39
2022-08-11T09:48:39.296Z,27.51
2022-08-11T09:50:43.579Z,27.39
2022-08-11T09:53:16.771Z,27.71
2022-08-11T09:55:11.982Z,27.71
2022-08-11T09:57:32.782Z,27.90
2022-08-11T09:59:36.595Z,27.86
2022-08-11T10:01:49.305Z,27.65
2022-08-11T10:03:53.646Z,27.95
2022-08-11T10:06:19.104Z,27.88
2022-08-11T10:08:23.910Z,28.06
2022-08-11T10:10:27.065Z,28.21
2022-08-11T10:12:36.031Z,28.31
2022-08-11T10:15:02.414Z,28.25
2022-08-11T10:17:08.205Z,28.17
2022-08-11T10:19:11.350Z,28.59
2022-08-11T10:21:24.314Z,28.43
2022-08-11T10:24:00.618Z,28.65
2022-08-11T10:26:26.465Z,28.84
2022-08-11T10:28:44.718Z,29.12
2022-08-11T10:31:12.580Z,29.28
2022-08-11T10:33:39.181Z,29.08
2022-08-11T10:35:49.446Z,29.36
2022-08-11T10:38:07.783Z,29.26
2022-08-11T10:40:16.810Z,29.82
2022-08-11T10:42:57.128Z,29.69
2022-08-11T10:45:02.407Z,29.92
2022-08-11T10:47:23.869Z,29.81
2022-08-11T10:49:28.263Z,29.82
2022-08-11T10:51:52.121Z,29.38
2022-08-11T10:54:15.994Z,29.75
2022-08-11T10:56:38.204Z,29.96
2022-08-11T10:58:49.222Z,30.22
2022-08-11T11:00:56.940Z,30.38
2022-08-11T11:03:22.063Z,30.01
2022-08-11T11:05:28.357Z,30.87
2022-08-11T11:07:44.355Z,30.82
2022-08-11T11:09:52.177Z,31.14
2022-08-11T11:12:18.593Z,31.23
2022-08-11T11:14:45.891Z,31.30
2022-08-11T11:17:21.424Z,31.47
2022-08-11T11:19:27.071Z,31.19
2022-08-11T11:21:30.691Z,31.29
2022-08-11T11:23:39.544Z,31.44
2022-08-11T11:26:10.702Z,30.91
2022-08-11T11:28:34.626Z,31.23
2022-08-11T11:30:48.376Z,31.45
2022-08-11T11:33:04.311Z,31.78
2022-08-11T11:35:26.674Z,32.05
2022-08-11T11:37:33.733Z,32.40
2022-08-11T11:39:37.758Z,32.55
2022-08-11T11:41:43.672Z,32.53
2022-08-11T11:43:47.231Z,32.68
2022-08-11T11:45:50.239Z,32.75
2022-08-11T11:47:55.325Z,32.51
2022-08-11T11:49:58.742Z,31.67
2022-08-11T11:52:02.061Z,32.43
2022-08-11T11:54:06.003Z,32.46
2022-08-11T11:56:15.082Z,32.37
2022-08-11T11:58:37.317Z,32.76
2022-08-11T12:00:59.903Z,32.88
2022-08-11T12:03:06.083Z,32.74
2022-08-11T12:05:11.336Z,33.11
2022-08-11T12:07:31.668Z,33.12
2022-08-11T12:09:34.952Z,33.12
2022-08-11T12:11:55.089Z,33.04
2022-08-11T12:14:04.707Z,33.12
2022-08-11T12:16:31.199Z,33.51
2022-08-11T12:18:39.638Z,33.61
2022-08-11T12:20:43.539Z,32.88
2022-08-11T12:23:04.147Z,33.15
2022-08-11T12:25:25.439Z,33.10
2022-08-11T12:27:29.218Z,32.71
2022-08-11T12:29:34.889Z,33.37
2022-08-11T12:31:40.201Z,33.56
2022-08-11T12:33:43.858Z,34.01
2022-08-11T12:36:01.255Z,34.48
2022-08-11T12:38:09.542Z,34.40
2022-08-11T12:40:43.007Z,34.50
2022-08-11T12:43:20.682Z,34.79
2022-08-11T12:45:31.610Z,34.89
2022-08-11T12:48:57.497Z,35.03
2022-08-11T12:50:36.071Z,34.90
2022-08-11T12:52:46.977Z,34.77
2022-08-11T12:54:58.696Z,34.88
2022-08-11T12:57:36.286Z,34.63
2022-08-11T12:59:59.330Z,34.69
2022-08-11T13:02:21.906Z,34.05
2022-08-11T13:04:46.047Z,34.59
2022-08-11T13:06:53.673Z,34.15
2022-08-11T13:09:01.059Z,34.00
2022-08-11T13:11:22.950Z,34.30
2022-08-11T13:13:55.458Z,34.20
2022-08-11T13:15:50.740Z,34.90
2022-08-11T13:17:56.229Z,35.42
2022-08-11T13:20:00.426Z,35.82
2022-08-11T13:22:07.386Z,35.92
2022-08-11T13:24:10.404Z,36.10
2022-08-11T13:26:14.092Z,36.22
2022-08-11T13:28:19.517Z,35.90
2022-08-11T13:30:47.170Z,34.69
2022-08-11T13:32:51.017Z,34.43
2022-08-11T13:34:55.403Z,33.87
2022-08-11T13:37:00.510Z,32.46
2022-08-11T13:39:04.547Z,32.29
2022-08-11T13:41:28.036Z,33.34
2022-08-11T13:43:31.111Z,33.82
2022-08-11T13:45:36.397Z,35.19
2022-08-11T13:47:41.922Z,35.39
2022-08-11T13:49:47.932Z,35.40
2022-08-11T13:51:53.402Z,34.73
2022-08-11T13:53:57.889Z,35.39
2022-08-11T13:56:05.711Z,34.77
2022-08-11T13:58:19.073Z,34.48
2022-08-11T14:00:28.136Z,34.13
2022-08-11T14:02:31.857Z,34.46
2022-08-11T14:04:40.953Z,35.21
2022-08-11T14:06:50.185Z,36.02
2022-08-11T14:08:56.198Z,35.65
2022-08-11T14:12:21.393Z,35.69
2022-08-11T14:13:48.288Z,35.93
2022-08-11T14:15:53.347Z,35.85
2022-08-11T14:18:03.290Z,35.22
2022-08-11T14:20:38.540Z,35.70
2022-08-11T14:22:34.427Z,35.68
2022-08-11T14:24:41.108Z,36.12
2022-08-11T14:26:45.282Z,35.60
2022-08-11T14:28:48.771Z,35.53
2022-08-11T14:31:01.186Z,35.77
2022-08-11T14:33:17.128Z,35.27
2022-08-11T14:35:22.786Z,35.36
2022-08-11T14:37:27.918Z,34.55
2022-08-11T14:39:35.959Z,34.30
2022-08-11T14:42:10.067Z,35.14
2022-08-11T14:44:32.297Z,35.69
2022-08-11T14:46:52.878Z,35.98
2022-08-11T14:48:56.988Z,36.16
2022-08-11T14:51:00.459Z,36.56
2022-08-11T14:53:05.912Z,36.40
2022-08-11T14:55:27.550Z,36.44
2022-08-11T14:57:56.195Z,36.53
2022-08-11T14:59:58.985Z,36.60
2022-08-11T15:02:32.691Z,36.13
2022-08-11T15:04:37.019Z,36.60
2022-08-11T15:06:40.030Z,36.17
2022-08-11T15:08:58.071Z,34.71
2022-08-11T15:11:21.164Z,36.56
2022-08-11T15:13:25.582Z,36.87
2022-08-11T15:15:46.962Z,37.01
2022-08-11T15:17:52.586Z,36.85
2022-08-11T15:20:16.817Z,36.61
2022-08-11T15:22:37.721Z,35.83
2022-08-11T15:24:40.588Z,37.02
2022-08-11T15:27:01.519Z,36.76
2022-08-11T15:29:23.672Z,37.09
2022-08-11T15:31:49.565Z,36.64
2022-08-11T15:34:12.653Z,36.89
2022-08-11T15:36:37.404Z,37.03
2022-08-11T15:38:44.941Z,36.23
2022-08-11T15:41:05.268Z,37.00
2022-08-11T15:43:30.060Z,37.29
2022-08-11T15:45:53.195Z,37.60
2022-08-11T15:48:05.894Z,38.00
2022-08-11T15:50:14.733Z,37.62
2022-08-11T15:52:22.691Z,36.96
2022-08-11T15:54:31.068Z,37.08
2022-08-11T15:56:36.112Z,37.28
2022-08-11T15:59:40.565Z,37.64
2022-08-11T16:01:44.598Z,35.48
2022-08-11T16:04:12.559Z,36.96
2022-08-11T16:06:16.283Z,36.88
2022-08-11T16:08:25.256Z,36.45
2022-08-11T16:10:37.031Z,37.14
2022-08-11T16:13:15.904Z,37.61
2022-08-11T16:15:36.229Z,37.72
2022-08-11T16:17:45.392Z,36.78
2022-08-11T16:19:52.649Z,37.66
2022-08-11T16:21:57.666Z,37.75
2022-08-11T16:24:02.948Z,37.26
2022-08-11T16:27:09.502Z,38.22
2022-08-11T16:28:33.013Z,38.50
2022-08-11T16:30:38.632Z,38.64
2022-08-11T16:32:45.465Z,38.47
2022-08-11T16:35:11.995Z,38.21
2022-08-11T16:37:32.649Z,38.63
2022-08-11T16:39:36.362Z,38.51
2022-08-11T16:42:00.739Z,38.58
2022-08-11T16:44:36.907Z,38.04
2022-08-11T16:46:58.065Z,37.92
2022-08-11T16:49:04.026Z,37.26
2022-08-11T16:51:08.081Z,37.12
2022-08-11T16:53:11.068Z,36.69
2022-08-11T16:55:13.933Z,36.15
2022-08-11T16:57:56.343Z,36.28
2022-08-11T17:00:03.140Z,36.83
2022-08-11T17:02:09.853Z,36.79
2022-08-11T17:04:38.494Z,36.71
2022-08-11T17:07:03.344Z,37.29
2022-08-11T17:09:45.912Z,37.34
2022-08-11T17:12:14.031Z,37.73
2022-08-11T17:14:34.964Z,37.59
2022-08-11T17:16:42.003Z,37.56
2022-08-11T17:18:51.137Z,37.48
2022-08-11T17:20:55.608Z,37.05
2022-08-11T17:23:28.551Z,36.51
2022-08-11T17:25:32.372Z,36.66
2022-08-11T17:27:56.549Z,35.87
2022-08-11T17:30:02.507Z,36.42
2022-08-11T17:32:24.933Z,36.29
2022-08-11T17:34:46.687Z,36.50
2022-08-11T17:36:52.056Z,36.19
2022-08-11T17:38:54.930Z,35.81
2022-08-11T17:41:23.251Z,35.95
2022-08-11T17:43:44.584Z,35.73
2022-08-11T17:46:08.163Z,35.94
2022-08-11T17:48:27.906Z,36.34
2022-08-11T17:50:31.750Z,36.19
2022-08-11T17:52:54.259Z,35.77
2022-08-11T17:55:16.335Z,35.18
2022-08-11T17:57:58.857Z,34.59
2022-08-11T18:00:03.055Z,34.95
2022-08-11T18:02:34.759Z,34.22
2022-08-11T18:04:38.250Z,33.88
2022-08-11T18:06:42.863Z,33.28
2022-08-11T18:09:06.230Z,32.56
2022-08-11T18:12:10.507Z,32.34
2022-08-11T18:14:09.638Z,31.68
2022-08-11T18:16:30.684Z,31.16
2022-08-11T18:18:51.053Z,30.93
2022-08-11T18:21:11.825Z,30.73
2022-08-11T18:23:46.096Z,30.24
2022-08-11T18:26:11.115Z,29.96
2022-08-11T18:28:33.621Z,29.38
2022-08-11T18:31:03.534Z,29.16
2022-08-11T18:36:13.752Z,28.62
2022-08-11T18:38:36.343Z,26.57
2022-08-11T18:40:57.092Z,28.27
2022-08-11T18:43:26.935Z,28.15
2022-08-11T18:45:48.345Z,28.04
2022-08-11T18:48:23.172Z,27.09
2022-08-11T18:50:53.550Z,26.53
2022-08-11T18:53:29.684Z,27.19
2022-08-11T18:55:51.881Z,26.96
2022-08-11T18:58:13.949Z,26.23
2022-08-11T19:00:35.932Z,26.57
2022-08-11T19:02:58.248Z,26.21
2022-08-11T19:05:20.426Z,25.64
2022-08-11T19:08:03.848Z,25.13
2022-08-11T19:10:25.317Z,26.04
2022-08-11T19:12:51.583Z,25.67
2022-08-11T19:15:13.333Z,25.24
2022-08-11T19:17:43.395Z,24.62
2022-08-11T19:20:06.890Z,25.25
2022-08-11T19:22:28.529Z,25.63
2022-08-11T19:24:50.664Z,24.60
2022-08-11T19:27:12.371Z,25.28
2022-08-11T19:30:07.193Z,25.40
2022-08-11T19:32:17.095Z,24.78
2022-08-11T19:34:41.204Z,23.29
2022-08-11T19:37:02.486Z,24.63
2022-08-11T19:39:23.378Z,21.60
2022-08-11T19:41:52.212Z,23.99
2022-08-11T19:44:17.951Z,22.65
2022-08-11T19:46:40.956Z,23.90
2022-08-11T19:49:03.310Z,24.08
2022-08-11T19:51:26.415Z,24.49
2022-08-11T19:53:48.602Z,23.78
2022-08-11T19:56:11.739Z,24.32
2022-08-11T19:58:33.301Z,24.79
2022-08-11T20:00:54.222Z,24.44
2022-08-11T20:03:14.810Z,24.36
2022-08-11T20:05:34.911Z,24.61
2022-08-11T20:07:57.143Z,24.46
2022-08-11T20:10:21.053Z,24.66
2022-08-11T20:12:43.553Z,24.84
2022-08-11T20:15:05.816Z,24.93
2022-08-11T20:17:29.597Z,24.48
2022-08-11T20:19:56.311Z,24.92
2022-08-11T20:22:17.845Z,24.51
2022-08-11T20:24:40.242Z,24.85
2022-08-11T20:27:01.407Z,24.82
2022-08-11T20:29:25.244Z,24.91
2022-08-11T20:31:45.256Z,24.90
2022-08-11T20:34:06.903Z,24.19
2022-08-11T20:36:30.480Z,24.70
2022-08-11T20:38:52.389Z,24.82
2022-08-11T20:41:16.210Z,24.60
2022-08-11T20:44:06.644Z,24.63
2022-08-11T20:46:21.019Z,24.38
2022-08-11T20:48:42.014Z,24.73
2022-08-11T20:51:06.484Z,24.42
2022-08-11T20:53:47.402Z,24.50
2022-08-11T20:56:08.929Z,24.42
2022-08-11T20:59:02.376Z,24.47
2022-08-11T21:01:20.562Z,24.37
2022-08-11T21:03:55.474Z,23.82
2022-08-11T21:06:31.273Z,23.92
2022-08-11T21:08:55.444Z,24.21
2022-08-11T21:11:16.015Z,24.38
2022-08-11T21:13:55.646Z,24.13
2022-08-11T21:16:25.298Z,24.11
2022-08-11T21:18:49.593Z,24.08
2022-08-11T21:21:10.247Z,23.99
2022-08-11T21:23:37.478Z,23.86
2022-08-11T21:26:03.906Z,23.99
2022-08-11T21:28:27.674Z,23.54
2022-08-11T21:30:51.739Z,23.56
2022-08-11T21:33:19.178Z,23.79
2022-08-11T21:35:44.955Z,23.56
2022-08-11T21:38:09.025Z,23.72
2022-08-11T21:40:30.951Z,23.93
2022-08-11T21:42:55.540Z,23.94
2022-08-11T21:45:17.877Z,23.53
2022-08-11T21:47:43.143Z,23.49
2022-08-11T21:50:05.327Z,23.81
2022-08-11T21:52:26.036Z,23.57
2022-08-11T21:54:46.554Z,23.72
2022-08-11T21:57:08.573Z,23.80
2022-08-11T21:59:29.500Z,23.90
2022-08-11T22:01:51.833Z,23.64
2022-08-11T22:04:14.755Z,23.94
2022-08-11T22:06:36.090Z,23.70
2022-08-11T22:08:56.671Z,23.89
2022-08-11T22:11:31.905Z,23.78
2022-08-11T22:14:05.677Z,23.81
2022-08-11T22:16:27.373Z,23.09
2022-08-11T22:18:49.332Z,23.80
2022-08-11T22:21:14.049Z,23.79
2022-08-11T22:23:58.074Z,23.80
2022-08-11T22:26:20.412Z,23.74
2022-08-11T22:28:43.125Z,23.82
2022-08-11T22:31:03.288Z,23.62
2022-08-11T22:33:28.467Z,23.41
2022-08-11T22:35:50.595Z,23.34
2022-08-11T22:38:14.533Z,23.34
2022-08-11T22:40:34.890Z,23.23
2022-08-11T22:42:55.271Z,23.09
2022-08-11T22:45:16.404Z,22.70
2022-08-11T22:47:40.355Z,22.97
2022-08-11T22:50:02.969Z,22.98
2022-08-11T22:52:24.090Z,22.92
2022-08-11T22:54:47.575Z,22.97
2022-08-11T22:57:08.994Z,23.01
2022-08-11T22:59:30.181Z,23.18
2022-08-11T23:01:55.435Z,22.55
2022-08-11T23:04:19.446Z,22.95
2022-08-11T23:06:40.997Z,22.80
2022-08-11T23:09:01.842Z,22.82
2022-08-11T23:11:25.266Z,22.21
2022-08-11T23:13:47.746Z,22.21
2022-08-11T23:16:08.963Z,22.66
2022-08-11T23:18:31.417Z,22.87
2022-08-11T23:20:56.096Z,23.04
2022-08-11T23:23:19.360Z,23.14
2022-08-11T23:25:40.195Z,22.90
2022-08-11T23:28:02.897Z,22.77
2022-08-11T23:30:24.903Z,22.94
2022-08-11T23:32:47.827Z,23.04
2022-08-11T23:35:40.319Z,23.14
2022-08-11T23:37:55.604Z,22.67
2022-08-11T23:40:20.191Z,23.16
2022-08-11T23:42:43.502Z,22.93
2022-08-11T23:45:09.839Z,23.00
2022-08-11T23:47:30.992Z,22.94
2022-08-11T23:49:52.474Z,22.98
2022-08-11T23:52:14.318Z,22.96
2022-08-11T23:54:37.417Z,22.96
2022-08-11T23:56:58.603Z,22.61
2022-08-11T23:59:20.521Z,22.35
